RYR4573 LIRA-LFBT
Flight info
| Callsign | RYR4573 |
|---|---|
| Flight time | 1h 36m |
| Altitude | 38000 |
| Route | GILIO DCT ELB DCT IXITO DCT GEKBA/N0434F370 DCT VAMTU DCT KOLON DCT GANGU DCT PADKO/N0436F380 DCT FJR DCT GAI DCT AGN |
| Aircraft | B738/M-SDE2E3FGHIRWXY/LB1 |
Departure
| Time | 2026-04-20 20:29 |
|---|---|
| Airport | Ciampino–G. B. Pastine International Airport (LIRA) |
Arrival
| Time | 2026-04-20 22:06 |
|---|---|
| Airport | Tarbes-Lourdes-Pyrénées Airport (LFBT) |
| Time | Latitude | Longitude | Altitude | Speed | Heading |
|---|---|---|---|---|---|
| 2026-04-20 20:03 | 41.80010 | 12.59118 | 405 ft | 0 kts | 285° |
| 2026-04-20 20:23 | 41.80007 | 12.59130 | 405 ft | 4 kts | 258° |
| 2026-04-20 20:23 | 41.80015 | 12.59160 | 402 ft | 4 kts | 250° |
| 2026-04-20 20:24 | 41.80023 | 12.59192 | 404 ft | 4 kts | 257° |
| 2026-04-20 20:24 | 41.80028 | 12.59228 | 402 ft | 4 kts | 266° |
| 2026-04-20 20:24 | 41.80028 | 12.59244 | 400 ft | 1 kts | 268° |
| 2026-04-20 20:24 | 41.80028 | 12.59245 | 400 ft | 1 kts | 268° |
| 2026-04-20 20:26 | 41.80028 | 12.59244 | 406 ft | 1 kts | 268° |
| 2026-04-20 20:26 | 41.80056 | 12.59200 | 404 ft | 14 kts | 333° |
| 2026-04-20 20:27 | 41.80177 | 12.59115 | 404 ft | 22 kts | 333° |
| 2026-04-20 20:27 | 41.80314 | 12.59020 | 406 ft | 22 kts | 333° |
| 2026-04-20 20:27 | 41.80446 | 12.58928 | 406 ft | 21 kts | 333° |
| 2026-04-20 20:27 | 41.80578 | 12.58838 | 406 ft | 21 kts | 333° |
| 2026-04-20 20:28 | 41.80707 | 12.58762 | 406 ft | 20 kts | 6° |
| 2026-04-20 20:28 | 41.80750 | 12.58913 | 418 ft | 19 kts | 131° |
| 2026-04-20 20:28 | 41.80707 | 12.58952 | 418 ft | 0 kts | 152° |
| 2026-04-20 20:28 | 41.80706 | 12.58953 | 418 ft | 0 kts | 152° |
| 2026-04-20 20:29 | 41.80560 | 12.59055 | 409 ft | 68 kts | 153° |
| 2026-04-20 20:29 | 41.79866 | 12.59533 | 412 ft | 154 kts | 153° |
| 2026-04-20 20:29 | 41.78823 | 12.60239 | 1138 ft | 171 kts | 155° |
| 2026-04-20 20:29 | 41.77734 | 12.60866 | 2363 ft | 178 kts | 167° |
| 2026-04-20 20:30 | 41.76419 | 12.60986 | 2881 ft | 203 kts | 188° |
| 2026-04-20 20:30 | 41.75020 | 12.60505 | 3528 ft | 206 kts | 206° |
| 2026-04-20 20:30 | 41.73840 | 12.59363 | 4060 ft | 217 kts | 231° |
| 2026-04-20 20:30 | 41.73206 | 12.57564 | 4875 ft | 215 kts | 260° |
| 2026-04-20 20:31 | 41.73200 | 12.55597 | 5777 ft | 216 kts | 279° |
| 2026-04-20 20:31 | 41.73613 | 12.53628 | 6662 ft | 218 kts | 287° |
| 2026-04-20 20:31 | 41.74105 | 12.51696 | 7482 ft | 220 kts | 287° |
| 2026-04-20 20:31 | 41.74594 | 12.49744 | 8319 ft | 222 kts | 287° |
| 2026-04-20 20:32 | 41.75063 | 12.47800 | 9147 ft | 224 kts | 286° |
| 2026-04-20 20:32 | 41.75532 | 12.45801 | 9986 ft | 226 kts | 286° |
| 2026-04-20 20:32 | 41.76001 | 12.43780 | 10745 ft | 228 kts | 286° |
| 2026-04-20 20:32 | 41.76470 | 12.41747 | 11534 ft | 229 kts | 286° |
| 2026-04-20 20:33 | 41.76935 | 12.39683 | 12190 ft | 237 kts | 285° |
| 2026-04-20 20:33 | 41.77421 | 12.37447 | 12422 ft | 264 kts | 285° |
| 2026-04-20 20:33 | 41.77954 | 12.34976 | 12641 ft | 289 kts | 285° |
| 2026-04-20 20:33 | 41.78537 | 12.32277 | 12843 ft | 314 kts | 285° |
| 2026-04-20 20:34 | 41.79166 | 12.29368 | 13095 ft | 335 kts | 285° |
| 2026-04-20 20:34 | 41.79823 | 12.26324 | 13725 ft | 343 kts | 285° |
| 2026-04-20 20:34 | 41.80480 | 12.23238 | 14470 ft | 345 kts | 284° |
| 2026-04-20 20:34 | 41.81020 | 12.20100 | 15247 ft | 347 kts | 282° |
| 2026-04-20 20:35 | 41.81495 | 12.16923 | 16022 ft | 349 kts | 281° |
| 2026-04-20 20:35 | 41.81958 | 12.13711 | 16723 ft | 353 kts | 281° |
| 2026-04-20 20:35 | 41.82427 | 12.10463 | 17431 ft | 356 kts | 282° |
| 2026-04-20 20:35 | 41.82905 | 12.07193 | 18141 ft | 359 kts | 282° |
| 2026-04-20 20:36 | 41.83392 | 12.03896 | 18765 ft | 362 kts | 282° |
| 2026-04-20 20:36 | 41.83886 | 12.00570 | 19338 ft | 366 kts | 282° |
| 2026-04-20 20:36 | 41.84387 | 11.97216 | 19937 ft | 368 kts | 282° |
| 2026-04-20 20:36 | 41.84891 | 11.93839 | 20540 ft | 371 kts | 282° |
| 2026-04-20 20:37 | 41.85399 | 11.90433 | 21121 ft | 373 kts | 282° |
| 2026-04-20 20:37 | 41.85909 | 11.87011 | 21694 ft | 376 kts | 282° |
| 2026-04-20 20:37 | 41.86423 | 11.83553 | 22243 ft | 379 kts | 282° |
| 2026-04-20 20:37 | 41.86939 | 11.80072 | 22788 ft | 382 kts | 282° |
| 2026-04-20 20:38 | 41.87459 | 11.76563 | 23335 ft | 385 kts | 282° |
| 2026-04-20 20:38 | 41.87980 | 11.73031 | 23816 ft | 388 kts | 282° |
| 2026-04-20 20:38 | 41.88505 | 11.69472 | 24252 ft | 390 kts | 282° |
| 2026-04-20 20:38 | 41.89033 | 11.65888 | 24675 ft | 393 kts | 281° |
| 2026-04-20 20:39 | 41.89562 | 11.62276 | 25083 ft | 396 kts | 281° |
| 2026-04-20 20:39 | 41.90109 | 11.58647 | 25500 ft | 398 kts | 283° |
| 2026-04-20 20:39 | 41.90848 | 11.55054 | 25921 ft | 401 kts | 287° |
| 2026-04-20 20:39 | 41.91715 | 11.51491 | 26336 ft | 403 kts | 288° |
| 2026-04-20 20:40 | 41.92629 | 11.47923 | 26734 ft | 405 kts | 289° |
| 2026-04-20 20:40 | 41.93553 | 11.44335 | 27114 ft | 408 kts | 289° |
| 2026-04-20 20:40 | 41.94473 | 11.40719 | 27498 ft | 410 kts | 288° |
| 2026-04-20 20:40 | 41.95385 | 11.37076 | 27877 ft | 412 kts | 288° |
| 2026-04-20 20:41 | 41.96291 | 11.33410 | 28249 ft | 415 kts | 288° |
| 2026-04-20 20:41 | 41.97194 | 11.29716 | 28574 ft | 417 kts | 288° |
| 2026-04-20 20:41 | 41.98099 | 11.25989 | 28844 ft | 422 kts | 288° |
| 2026-04-20 20:41 | 41.99007 | 11.22231 | 29181 ft | 424 kts | 288° |
| 2026-04-20 20:42 | 41.99917 | 11.18452 | 29538 ft | 426 kts | 288° |
| 2026-04-20 20:42 | 42.00827 | 11.14664 | 29962 ft | 425 kts | 288° |
| 2026-04-20 20:42 | 42.01733 | 11.10891 | 30424 ft | 423 kts | 288° |
| 2026-04-20 20:42 | 42.02618 | 11.07196 | 30957 ft | 418 kts | 288° |
| 2026-04-20 20:43 | 42.03515 | 11.03448 | 31495 ft | 414 kts | 288° |
| 2026-04-20 20:43 | 42.04392 | 10.99776 | 31965 ft | 411 kts | 288° |
| 2026-04-20 20:43 | 42.05250 | 10.96176 | 32381 ft | 409 kts | 288° |
| 2026-04-20 20:43 | 42.06115 | 10.92545 | 32811 ft | 407 kts | 288° |
| 2026-04-20 20:44 | 42.06974 | 10.88932 | 33284 ft | 403 kts | 288° |
| 2026-04-20 20:44 | 42.07824 | 10.85350 | 33742 ft | 400 kts | 288° |
| 2026-04-20 20:44 | 42.08668 | 10.81789 | 34137 ft | 398 kts | 288° |
| 2026-04-20 20:44 | 42.09508 | 10.78242 | 34414 ft | 398 kts | 288° |
| 2026-04-20 20:45 | 42.10360 | 10.74634 | 34654 ft | 399 kts | 288° |
| 2026-04-20 20:45 | 42.11189 | 10.71120 | 34914 ft | 399 kts | 288° |
| 2026-04-20 20:45 | 42.12028 | 10.67561 | 35225 ft | 398 kts | 288° |
| 2026-04-20 20:45 | 42.12863 | 10.64008 | 35495 ft | 398 kts | 288° |
| 2026-04-20 20:46 | 42.13698 | 10.60453 | 35750 ft | 398 kts | 288° |
| 2026-04-20 20:46 | 42.14532 | 10.56893 | 36009 ft | 398 kts | 288° |
| 2026-04-20 20:46 | 42.15364 | 10.53338 | 36250 ft | 398 kts | 288° |
| 2026-04-20 20:46 | 42.16195 | 10.49781 | 36472 ft | 399 kts | 288° |
| 2026-04-20 20:47 | 42.17027 | 10.46216 | 36729 ft | 398 kts | 288° |
| 2026-04-20 20:47 | 42.17856 | 10.42659 | 36975 ft | 398 kts | 288° |
| 2026-04-20 20:47 | 42.18684 | 10.39097 | 37203 ft | 398 kts | 288° |
| 2026-04-20 20:47 | 42.19513 | 10.35529 | 37421 ft | 399 kts | 288° |
| 2026-04-20 20:48 | 42.20339 | 10.31963 | 37661 ft | 398 kts | 288° |
| 2026-04-20 20:48 | 42.21164 | 10.28401 | 37885 ft | 398 kts | 288° |
| 2026-04-20 20:48 | 42.22821 | 10.21225 | 37962 ft | 402 kts | 288° |
| 2026-04-20 20:49 | 42.24474 | 10.14043 | 37959 ft | 399 kts | 288° |
| 2026-04-20 20:49 | 42.26111 | 10.06904 | 37964 ft | 397 kts | 288° |
| 2026-04-20 20:50 | 42.27737 | 9.99796 | 37964 ft | 396 kts | 288° |
| 2026-04-20 20:50 | 42.29353 | 9.92705 | 37962 ft | 395 kts | 287° |
| 2026-04-20 20:51 | 42.30963 | 9.85622 | 37963 ft | 394 kts | 287° |
| 2026-04-20 20:51 | 42.32568 | 9.78534 | 37969 ft | 395 kts | 288° |
| 2026-04-20 20:52 | 42.34171 | 9.71432 | 37963 ft | 396 kts | 287° |
| 2026-04-20 20:52 | 42.35783 | 9.64270 | 37974 ft | 402 kts | 287° |
| 2026-04-20 20:53 | 42.37422 | 9.56963 | 37974 ft | 410 kts | 287° |
| 2026-04-20 20:53 | 42.39079 | 9.49550 | 37966 ft | 413 kts | 287° |
| 2026-04-20 20:54 | 42.40733 | 9.42118 | 37985 ft | 412 kts | 287° |
| 2026-04-20 20:54 | 42.42385 | 9.34682 | 37974 ft | 412 kts | 287° |
| 2026-04-20 20:55 | 42.44028 | 9.27257 | 37961 ft | 412 kts | 287° |
| 2026-04-20 20:55 | 42.45663 | 9.19838 | 37952 ft | 411 kts | 287° |
| 2026-04-20 20:56 | 42.47290 | 9.12429 | 37949 ft | 410 kts | 287° |
| 2026-04-20 20:56 | 42.48898 | 9.05087 | 37947 ft | 408 kts | 287° |
| 2026-04-20 20:57 | 42.50510 | 8.97699 | 37940 ft | 409 kts | 287° |
| 2026-04-20 20:57 | 42.52119 | 8.90300 | 37944 ft | 410 kts | 287° |
| 2026-04-20 20:58 | 42.53728 | 8.82876 | 37943 ft | 411 kts | 287° |
| 2026-04-20 20:58 | 42.55336 | 8.75428 | 37938 ft | 412 kts | 287° |
| 2026-04-20 20:59 | 42.56941 | 8.67971 | 37929 ft | 412 kts | 287° |
| 2026-04-20 20:59 | 42.58543 | 8.60497 | 37942 ft | 413 kts | 287° |
| 2026-04-20 21:00 | 42.60144 | 8.53006 | 37942 ft | 413 kts | 286° |
| 2026-04-20 21:00 | 42.61740 | 8.45505 | 37942 ft | 414 kts | 286° |
| 2026-04-20 21:01 | 42.63336 | 8.37985 | 37944 ft | 414 kts | 286° |
| 2026-04-20 21:01 | 42.64926 | 8.30460 | 37951 ft | 415 kts | 286° |
| 2026-04-20 21:02 | 42.66512 | 8.22928 | 37950 ft | 415 kts | 286° |
| 2026-04-20 21:02 | 42.68093 | 8.15395 | 37956 ft | 415 kts | 286° |
| 2026-04-20 21:03 | 42.69669 | 8.07857 | 37957 ft | 414 kts | 286° |
| 2026-04-20 21:03 | 42.71239 | 8.00322 | 37955 ft | 414 kts | 286° |
| 2026-04-20 21:04 | 42.72804 | 7.92779 | 37954 ft | 414 kts | 286° |
| 2026-04-20 21:04 | 42.74364 | 7.85238 | 37956 ft | 414 kts | 286° |
| 2026-04-20 21:05 | 42.75917 | 7.77699 | 37972 ft | 414 kts | 286° |
| 2026-04-20 21:05 | 42.77454 | 7.70209 | 37949 ft | 413 kts | 286° |
| 2026-04-20 21:06 | 42.78992 | 7.62690 | 37946 ft | 412 kts | 286° |
| 2026-04-20 21:06 | 42.80523 | 7.55180 | 37931 ft | 411 kts | 286° |
| 2026-04-20 21:07 | 42.82046 | 7.47677 | 37944 ft | 411 kts | 286° |
| 2026-04-20 21:07 | 42.83307 | 7.41441 | 37946 ft | 411 kts | 286° |
| 2026-04-20 21:08 | 42.84833 | 7.33877 | 37946 ft | 411 kts | 286° |
| 2026-04-20 21:08 | 42.86334 | 7.26403 | 37943 ft | 412 kts | 286° |
| 2026-04-20 21:09 | 42.87843 | 7.18864 | 37943 ft | 413 kts | 286° |
| 2026-04-20 21:09 | 42.89348 | 7.11314 | 37938 ft | 413 kts | 286° |
| 2026-04-20 21:10 | 42.90851 | 7.03747 | 37937 ft | 413 kts | 285° |
| 2026-04-20 21:10 | 42.92351 | 6.96167 | 37937 ft | 414 kts | 285° |
| 2026-04-20 21:11 | 42.93845 | 6.88586 | 37937 ft | 414 kts | 285° |
| 2026-04-20 21:11 | 42.95335 | 6.80999 | 37935 ft | 414 kts | 285° |
| 2026-04-20 21:12 | 42.96820 | 6.73407 | 37935 ft | 414 kts | 285° |
| 2026-04-20 21:12 | 42.98299 | 6.65818 | 37935 ft | 414 kts | 285° |
| 2026-04-20 21:13 | 42.99773 | 6.58220 | 37937 ft | 413 kts | 285° |
| 2026-04-20 21:13 | 43.01241 | 6.50630 | 37934 ft | 413 kts | 285° |
| 2026-04-20 21:14 | 43.02703 | 6.43036 | 37946 ft | 413 kts | 285° |
| 2026-04-20 21:14 | 43.04158 | 6.35453 | 37935 ft | 412 kts | 285° |
| 2026-04-20 21:15 | 43.05603 | 6.27888 | 37940 ft | 411 kts | 285° |
| 2026-04-20 21:15 | 43.07041 | 6.20334 | 37942 ft | 410 kts | 285° |
| 2026-04-20 21:16 | 43.08470 | 6.12797 | 37939 ft | 409 kts | 285° |
| 2026-04-20 21:16 | 43.09891 | 6.05270 | 37928 ft | 408 kts | 285° |
| 2026-04-20 21:17 | 43.11307 | 5.97744 | 37943 ft | 408 kts | 285° |
| 2026-04-20 21:17 | 43.12718 | 5.90215 | 37943 ft | 409 kts | 285° |
| 2026-04-20 21:18 | 43.14127 | 5.82665 | 37946 ft | 409 kts | 285° |
| 2026-04-20 21:18 | 43.15530 | 5.75112 | 37950 ft | 410 kts | 285° |
| 2026-04-20 21:19 | 43.16922 | 5.67593 | 37961 ft | 410 kts | 284° |
| 2026-04-20 21:20 | 43.19018 | 5.56217 | 37955 ft | 410 kts | 284° |
| 2026-04-20 21:20 | 43.20408 | 5.48628 | 37960 ft | 411 kts | 284° |
| 2026-04-20 21:21 | 43.21795 | 5.41038 | 37965 ft | 410 kts | 284° |
| 2026-04-20 21:21 | 43.23182 | 5.33448 | 37966 ft | 410 kts | 286° |
| 2026-04-20 21:22 | 43.25043 | 5.26057 | 37958 ft | 410 kts | 290° |
| 2026-04-20 21:22 | 43.26995 | 5.18698 | 37967 ft | 410 kts | 289° |
| 2026-04-20 21:23 | 43.28931 | 5.11328 | 37965 ft | 411 kts | 289° |
| 2026-04-20 21:23 | 43.30851 | 5.03946 | 37966 ft | 411 kts | 289° |
| 2026-04-20 21:24 | 43.32764 | 4.96549 | 37988 ft | 411 kts | 289° |
| 2026-04-20 21:24 | 43.34672 | 4.89146 | 37971 ft | 411 kts | 289° |
| 2026-04-20 21:25 | 43.36577 | 4.81730 | 37968 ft | 411 kts | 289° |
| 2026-04-20 21:25 | 43.38476 | 4.74316 | 37965 ft | 411 kts | 289° |
| 2026-04-20 21:26 | 43.40372 | 4.66889 | 37964 ft | 411 kts | 289° |
| 2026-04-20 21:26 | 43.42261 | 4.59468 | 37969 ft | 411 kts | 289° |
| 2026-04-20 21:27 | 43.44146 | 4.52040 | 37972 ft | 411 kts | 289° |
| 2026-04-20 21:27 | 43.46026 | 4.44607 | 37968 ft | 411 kts | 289° |
| 2026-04-20 21:28 | 43.47898 | 4.37182 | 37965 ft | 411 kts | 288° |
| 2026-04-20 21:28 | 43.49766 | 4.29746 | 37965 ft | 411 kts | 288° |
| 2026-04-20 21:29 | 43.51629 | 4.22310 | 37964 ft | 411 kts | 288° |
| 2026-04-20 21:29 | 43.53473 | 4.14925 | 37968 ft | 410 kts | 288° |
| 2026-04-20 21:30 | 43.55324 | 4.07490 | 37964 ft | 410 kts | 288° |
| 2026-04-20 21:30 | 43.57172 | 4.00045 | 37968 ft | 410 kts | 288° |
| 2026-04-20 21:31 | 43.58800 | 3.92520 | 37970 ft | 410 kts | 284° |
| 2026-04-20 21:31 | 43.60182 | 3.84895 | 37965 ft | 409 kts | 284° |
| 2026-04-20 21:32 | 43.61548 | 3.77268 | 37959 ft | 410 kts | 284° |
| 2026-04-20 21:32 | 43.62928 | 3.69642 | 37974 ft | 410 kts | 284° |
| 2026-04-20 21:33 | 43.64314 | 3.62015 | 37972 ft | 410 kts | 284° |
| 2026-04-20 21:33 | 43.65702 | 3.54364 | 37974 ft | 411 kts | 284° |
| 2026-04-20 21:34 | 43.67087 | 3.46701 | 37976 ft | 411 kts | 284° |
| 2026-04-20 21:34 | 43.68458 | 3.39083 | 37968 ft | 412 kts | 284° |
| 2026-04-20 21:35 | 43.69836 | 3.31393 | 37967 ft | 412 kts | 284° |
| 2026-04-20 21:35 | 43.71208 | 3.23709 | 37986 ft | 412 kts | 283° |
| 2026-04-20 21:36 | 43.72576 | 3.16009 | 37981 ft | 412 kts | 283° |
| 2026-04-20 21:36 | 43.73939 | 3.08307 | 37975 ft | 412 kts | 283° |
| 2026-04-20 21:37 | 43.75296 | 3.00602 | 37977 ft | 412 kts | 283° |
| 2026-04-20 21:37 | 43.76650 | 2.92886 | 37968 ft | 413 kts | 283° |
| 2026-04-20 21:38 | 43.77996 | 2.85181 | 37976 ft | 412 kts | 283° |
| 2026-04-20 21:38 | 43.79338 | 2.77470 | 37989 ft | 412 kts | 283° |
| 2026-04-20 21:39 | 43.80674 | 2.69756 | 37988 ft | 412 kts | 283° |
| 2026-04-20 21:39 | 43.82005 | 2.62033 | 37984 ft | 412 kts | 283° |
| 2026-04-20 21:40 | 43.83336 | 2.54280 | 37549 ft | 418 kts | 283° |
| 2026-04-20 21:40 | 43.84005 | 2.50373 | 37026 ft | 415 kts | 283° |
| 2026-04-20 21:40 | 43.84666 | 2.46499 | 36496 ft | 412 kts | 283° |
| 2026-04-20 21:40 | 43.85325 | 2.42631 | 35904 ft | 412 kts | 283° |
| 2026-04-20 21:41 | 43.85982 | 2.38769 | 35258 ft | 412 kts | 283° |
| 2026-04-20 21:41 | 43.86638 | 2.34901 | 34621 ft | 413 kts | 283° |
| 2026-04-20 21:41 | 43.87295 | 2.31020 | 33976 ft | 414 kts | 283° |
| 2026-04-20 21:41 | 43.87951 | 2.27132 | 33226 ft | 415 kts | 283° |
| 2026-04-20 21:42 | 43.88603 | 2.23260 | 32782 ft | 410 kts | 283° |
| 2026-04-20 21:42 | 43.89239 | 2.19480 | 32306 ft | 406 kts | 283° |
| 2026-04-20 21:42 | 43.89874 | 2.15693 | 31834 ft | 402 kts | 283° |
| 2026-04-20 21:42 | 43.90502 | 2.11939 | 31373 ft | 398 kts | 284° |
| 2026-04-20 21:43 | 43.91123 | 2.08223 | 30928 ft | 394 kts | 284° |
| 2026-04-20 21:43 | 43.91738 | 2.04534 | 30487 ft | 391 kts | 284° |
| 2026-04-20 21:43 | 43.92346 | 2.00879 | 30050 ft | 387 kts | 284° |
| 2026-04-20 21:43 | 43.92948 | 1.97253 | 29535 ft | 384 kts | 284° |
| 2026-04-20 21:44 | 43.93542 | 1.93669 | 29090 ft | 379 kts | 284° |
| 2026-04-20 21:44 | 43.94128 | 1.90127 | 28634 ft | 374 kts | 284° |
| 2026-04-20 21:44 | 43.94705 | 1.86625 | 28190 ft | 370 kts | 284° |
| 2026-04-20 21:44 | 43.95172 | 1.83128 | 27727 ft | 368 kts | 277° |
| 2026-04-20 21:45 | 43.95266 | 1.79583 | 27065 ft | 372 kts | 268° |
| 2026-04-20 21:45 | 43.95028 | 1.76018 | 26583 ft | 370 kts | 267° |
| 2026-04-20 21:45 | 43.94777 | 1.72474 | 26124 ft | 368 kts | 267° |
| 2026-04-20 21:45 | 43.94531 | 1.68958 | 25686 ft | 365 kts | 267° |
| 2026-04-20 21:46 | 43.94289 | 1.65474 | 25245 ft | 362 kts | 267° |
| 2026-04-20 21:46 | 43.94052 | 1.62012 | 24827 ft | 359 kts | 267° |
| 2026-04-20 21:46 | 43.93818 | 1.58573 | 24411 ft | 357 kts | 267° |
| 2026-04-20 21:46 | 43.93587 | 1.55163 | 24002 ft | 354 kts | 267° |
| 2026-04-20 21:47 | 43.93356 | 1.51767 | 23581 ft | 352 kts | 267° |
| 2026-04-20 21:47 | 43.93127 | 1.48395 | 23107 ft | 351 kts | 267° |
| 2026-04-20 21:47 | 43.92898 | 1.45038 | 22656 ft | 348 kts | 267° |
| 2026-04-20 21:47 | 43.92669 | 1.41711 | 22245 ft | 345 kts | 267° |
| 2026-04-20 21:48 | 43.92442 | 1.38412 | 21831 ft | 342 kts | 267° |
| 2026-04-20 21:48 | 43.92216 | 1.35144 | 21436 ft | 339 kts | 267° |
| 2026-04-20 21:48 | 43.91990 | 1.31894 | 21025 ft | 339 kts | 267° |
| 2026-04-20 21:48 | 43.91764 | 1.28647 | 20629 ft | 338 kts | 267° |
| 2026-04-20 21:49 | 43.91537 | 1.25389 | 20235 ft | 343 kts | 267° |
| 2026-04-20 21:49 | 43.91304 | 1.22060 | 19829 ft | 350 kts | 266° |
| 2026-04-20 21:49 | 43.91067 | 1.18700 | 19412 ft | 350 kts | 266° |
| 2026-04-20 21:49 | 43.90829 | 1.15357 | 18991 ft | 347 kts | 266° |
| 2026-04-20 21:50 | 43.90592 | 1.12044 | 18581 ft | 344 kts | 266° |
| 2026-04-20 21:50 | 43.90357 | 1.08754 | 18171 ft | 341 kts | 266° |
| 2026-04-20 21:50 | 43.90123 | 1.05494 | 17717 ft | 339 kts | 266° |
| 2026-04-20 21:50 | 43.89889 | 1.02252 | 17283 ft | 336 kts | 266° |
| 2026-04-20 21:51 | 43.89658 | 0.99045 | 16886 ft | 332 kts | 266° |
| 2026-04-20 21:51 | 43.89427 | 0.95872 | 16474 ft | 329 kts | 266° |
| 2026-04-20 21:51 | 43.89197 | 0.92727 | 16083 ft | 327 kts | 266° |
| 2026-04-20 21:51 | 43.88862 | 0.89629 | 15672 ft | 326 kts | 255° |
| 2026-04-20 21:52 | 43.87817 | 0.86833 | 15293 ft | 329 kts | 237° |
| 2026-04-20 21:52 | 43.86191 | 0.84574 | 14874 ft | 334 kts | 221° |
| 2026-04-20 21:52 | 43.84325 | 0.82667 | 14480 ft | 333 kts | 219° |
| 2026-04-20 21:52 | 43.82434 | 0.80819 | 14074 ft | 332 kts | 219° |
| 2026-04-20 21:53 | 43.80551 | 0.78989 | 13684 ft | 330 kts | 219° |
| 2026-04-20 21:53 | 43.78683 | 0.77162 | 13253 ft | 328 kts | 219° |
| 2026-04-20 21:53 | 43.76830 | 0.75338 | 12848 ft | 326 kts | 219° |
| 2026-04-20 21:53 | 43.74992 | 0.73519 | 12459 ft | 324 kts | 219° |
| 2026-04-20 21:54 | 43.73170 | 0.71712 | 12086 ft | 321 kts | 219° |
| 2026-04-20 21:54 | 43.71358 | 0.69912 | 11709 ft | 320 kts | 219° |
| 2026-04-20 21:54 | 43.70164 | 0.68726 | 11457 ft | 318 kts | 219° |
| 2026-04-20 21:54 | 43.68371 | 0.66945 | 11079 ft | 317 kts | 219° |
| 2026-04-20 21:55 | 43.66588 | 0.65173 | 10707 ft | 315 kts | 219° |
| 2026-04-20 21:55 | 43.64826 | 0.63427 | 10539 ft | 307 kts | 219° |
| 2026-04-20 21:55 | 43.63118 | 0.61733 | 10393 ft | 298 kts | 220° |
| 2026-04-20 21:55 | 43.61709 | 0.59710 | 10129 ft | 289 kts | 237° |
| 2026-04-20 21:56 | 43.60574 | 0.57460 | 9935 ft | 283 kts | 238° |
| 2026-04-20 21:56 | 43.59480 | 0.55257 | 9853 ft | 273 kts | 238° |
| 2026-04-20 21:56 | 43.58388 | 0.53069 | 9410 ft | 277 kts | 238° |
| 2026-04-20 21:56 | 43.57291 | 0.50891 | 9082 ft | 276 kts | 238° |
| 2026-04-20 21:57 | 43.56191 | 0.48729 | 8782 ft | 275 kts | 237° |
| 2026-04-20 21:57 | 43.55092 | 0.46583 | 8505 ft | 273 kts | 237° |
| 2026-04-20 21:57 | 43.53999 | 0.44456 | 8230 ft | 272 kts | 237° |
| 2026-04-20 21:57 | 43.52907 | 0.42341 | 7950 ft | 270 kts | 237° |
| 2026-04-20 21:58 | 43.51820 | 0.40239 | 7666 ft | 269 kts | 237° |
| 2026-04-20 21:58 | 43.50739 | 0.38153 | 7400 ft | 267 kts | 236° |
| 2026-04-20 21:58 | 43.49662 | 0.36079 | 7147 ft | 265 kts | 236° |
| 2026-04-20 21:58 | 43.48591 | 0.34015 | 6881 ft | 264 kts | 236° |
| 2026-04-20 21:59 | 43.47524 | 0.31965 | 6619 ft | 263 kts | 236° |
| 2026-04-20 21:59 | 43.46461 | 0.29922 | 6355 ft | 262 kts | 236° |
| 2026-04-20 21:59 | 43.45401 | 0.27886 | 6073 ft | 262 kts | 235° |
| 2026-04-20 21:59 | 43.44342 | 0.25856 | 5815 ft | 260 kts | 235° |
| 2026-04-20 22:00 | 43.43291 | 0.23841 | 5552 ft | 259 kts | 235° |
| 2026-04-20 22:00 | 43.42250 | 0.21847 | 5404 ft | 253 kts | 235° |
| 2026-04-20 22:00 | 43.41240 | 0.19913 | 5290 ft | 246 kts | 235° |
| 2026-04-20 22:00 | 43.40255 | 0.18029 | 5181 ft | 239 kts | 235° |
| 2026-04-20 22:01 | 43.39300 | 0.16201 | 5077 ft | 232 kts | 235° |
| 2026-04-20 22:01 | 43.38371 | 0.14427 | 4975 ft | 225 kts | 235° |
| 2026-04-20 22:01 | 43.37464 | 0.12696 | 4824 ft | 223 kts | 234° |
| 2026-04-20 22:01 | 43.36555 | 0.10962 | 4602 ft | 224 kts | 234° |
| 2026-04-20 22:02 | 43.35646 | 0.09230 | 4375 ft | 223 kts | 233° |
| 2026-04-20 22:02 | 43.34498 | 0.07834 | 4126 ft | 223 kts | 203° |
| 2026-04-20 22:02 | 43.33072 | 0.07118 | 3950 ft | 215 kts | 201° |
| 2026-04-20 22:02 | 43.31714 | 0.06401 | 3859 ft | 200 kts | 201° |
| 2026-04-20 22:03 | 43.30434 | 0.05736 | 3579 ft | 191 kts | 200° |
| 2026-04-20 22:03 | 43.29229 | 0.05120 | 3350 ft | 179 kts | 199° |
| 2026-04-20 22:03 | 43.28121 | 0.04558 | 3093 ft | 163 kts | 199° |
| 2026-04-20 22:03 | 43.27121 | 0.04051 | 2896 ft | 149 kts | 199° |
| 2026-04-20 22:04 | 43.26166 | 0.03567 | 2708 ft | 145 kts | 199° |
| 2026-04-20 22:04 | 43.25221 | 0.03089 | 2519 ft | 146 kts | 198° |
| 2026-04-20 22:04 | 43.24283 | 0.02614 | 2333 ft | 146 kts | 198° |
| 2026-04-20 22:04 | 43.23335 | 0.02134 | 2134 ft | 145 kts | 199° |
| 2026-04-20 22:05 | 43.22385 | 0.01652 | 1938 ft | 141 kts | 199° |
| 2026-04-20 22:05 | 43.21489 | 0.01198 | 1751 ft | 138 kts | 200° |
| 2026-04-20 22:05 | 43.20596 | 0.00753 | 1573 ft | 136 kts | 199° |
| 2026-04-20 22:05 | 43.19719 | 0.00291 | 1355 ft | 135 kts | 198° |
| 2026-04-20 22:06 | 43.18838 | -0.00141 | 1196 ft | 130 kts | 200° |
| 2026-04-20 22:06 | 43.18190 | -0.00466 | 1212 ft | 29 kts | 200° |
| 2026-04-20 22:06 | 43.18156 | -0.00484 | 1213 ft | 8 kts | 200° |
| 2026-04-20 22:06 | 43.18074 | -0.00496 | 1214 ft | 13 kts | 152° |
| 2026-04-20 22:07 | 43.18026 | -0.00400 | 1213 ft | 13 kts | 107° |
| 2026-04-20 22:07 | 43.18038 | -0.00281 | 1212 ft | 14 kts | 69° |
| 2026-04-20 22:07 | 43.18117 | -0.00126 | 1208 ft | 23 kts | 42° |
| 2026-04-20 22:07 | 43.18259 | -0.00005 | 1203 ft | 25 kts | 29° |
| 2026-04-20 22:08 | 43.18411 | 0.00111 | 1203 ft | 25 kts | 28° |
| 2026-04-20 22:08 | 43.18511 | 0.00090 | 1201 ft | 9 kts | 346° |
| 2026-04-20 22:08 | 43.18531 | 0.00082 | 1201 ft | 0 kts | 340° |